Time;durP1;ratioP1;P1;durP2;ratioP2;P2;SDS_P1;SDS_P2;PMS_P1;PMS_P2;Temp;Humidity;BMP_temperature;BMP_pressure;BME280_temperature;BME280_humidity;BME280_pressure;Samples;Min_cycle;Max_cycle;Signal;HPM_P1;HPM_P2
2022/09/25 00:00:55;;;;;;;10.52;1.80;;;11.70;99.90;;;;;;5093182;28;20051;-64
2022/09/25 00:03:24;;;;;;;11.25;2.58;;;11.90;99.90;;;;;;5093347;28;20036;-65
2022/09/25 00:05:50;;;;;;;9.20;1.90;;;12.70;99.90;;;;;;5093147;28;20055;-65
2022/09/25 00:08:18;;;;;;;9.57;2.55;;;11.80;99.90;;;;;;5092676;28;20385;-65
2022/09/25 00:10:46;;;;;;;13.25;2.20;;;12.00;99.90;;;;;;5092745;28;20581;-67
2022/09/25 00:13:13;;;;;;;7.90;1.90;;;11.90;99.90;;;;;;5092709;28;20172;-65
2022/09/25 00:15:51;;;;;;;8.63;1.88;;;12.30;99.90;;;;;;5091811;28;20051;-67
2022/09/25 00:19:48;;;;;;;12.63;1.88;;;11.90;99.90;;;;;;5093219;28;20101;-65
2022/09/25 00:21:05;;;;;;;10.57;2.13;;;12.10;99.90;;;;;;5092727;28;20055;-66
2022/09/25 00:23:31;;;;;;;10.55;1.70;;;12.00;99.90;;;;;;5093077;28;20043;-66
2022/09/25 00:25:58;;;;;;;4.65;1.30;;;12.00;99.90;;;;;;5092968;28;20492;-65
2022/09/25 00:28:26;;;;;;;7.43;1.45;;;11.90;99.90;;;;;;5092611;28;20056;-67
2022/09/25 00:30:51;;;;;;;10.45;1.95;;;12.00;99.90;;;;;;5092814;28;20140;-65
2022/09/25 00:33:17;;;;;;;10.68;2.92;;;12.10;99.90;;;;;;5092771;28;20416;-65
2022/09/25 00:35:43;;;;;;;9.27;1.50;;;12.40;99.90;;;;;;5091545;28;20066;-64
2022/09/25 00:38:08;;;;;;;14.68;2.60;;;12.40;99.90;;;;;;5092759;28;20048;-64
2022/09/25 00:40:34;;;;;;;15.77;2.75;;;11.90;99.90;;;;;;5092735;28;20476;-65
2022/09/25 00:43:00;;;;;;;8.65;2.08;;;12.10;99.90;;;;;;5092395;28;20048;-64
2022/09/25 00:45:25;;;;;;;7.32;1.70;;;13.00;99.90;;;;;;5092718;28;20052;-64
2022/09/25 00:47:59;;;;;;;4.78;1.92;;;11.90;99.90;;;;;;5092603;28;20453;-64
2022/09/25 00:50:36;;;;;;;8.35;1.50;;;11.70;99.90;;;;;;5092698;28;20048;-64
2022/09/25 00:53:10;;;;;;;5.63;1.38;;;12.10;99.90;;;;;;5092507;28;20040;-64
2022/09/25 00:55:37;;;;;;;11.43;2.17;;;12.10;99.90;;;;;;5092557;28;20070;-64
2022/09/25 00:58:04;;;;;;;6.20;1.70;;;12.00;99.90;;;;;;5092217;28;20055;-67
2022/09/25 01:00:32;;;;;;;9.02;1.50;;;11.60;99.90;;;;;;5092437;28;20040;-64
2022/09/25 01:02:57;;;;;;;8.23;1.50;;;12.00;99.90;;;;;;5092289;28;20185;-64
2022/09/25 01:05:32;;;;;;;12.02;2.10;;;12.00;99.90;;;;;;5092040;28;20091;-66
2022/09/25 01:08:00;;;;;;;8.38;1.70;;;11.90;99.90;;;;;;5092375;28;20048;-64
2022/09/25 01:10:26;;;;;;;8.18;1.52;;;11.70;99.90;;;;;;5092260;28;20094;-65
2022/09/25 01:12:54;;;;;;;6.03;1.45;;;11.80;99.90;;;;;;5091862;28;20043;-65
2022/09/25 01:15:27;;;;;;;9.88;2.03;;;12.10;99.90;;;;;;5092166;28;20072;-66
2022/09/25 01:17:52;;;;;;;10.85;1.63;;;11.90;99.90;;;;;;5092252;28;20047;-64
2022/09/25 01:20:42;;;;;;;8.77;1.55;;;13.10;99.90;;;;;;5090892;28;20085;-64
2022/09/25 01:23:28;;;;;;;4.65;1.45;;;11.90;99.90;;;;;;5092198;28;20118;-64
2022/09/25 01:26:13;;;;;;;6.75;1.60;;;12.40;99.90;;;;;;5084354;28;20138;-64
2022/09/25 01:29:11;;;;;;;5.78;1.58;;;12.20;99.90;;;;;;5092277;28;20089;-64
2022/09/25 01:31:49;;;;;;;4.72;1.25;;;11.80;99.90;;;;;;5054304;28;20088;-64
2022/09/25 01:34:28;;;;;;;7.13;1.38;;;11.90;99.90;;;;;;5092038;28;20052;-64
2022/09/25 01:37:14;;;;;;;6.60;1.30;;;12.10;99.90;;;;;;5092101;28;20044;-64
2022/09/25 01:39:48;;;;;;;11.20;1.70;;;12.20;99.90;;;;;;5092031;28;20130;-67
2022/09/25 01:42:20;;;;;;;7.47;1.63;;;12.20;99.90;;;;;;5091726;28;20048;-64
2022/09/25 01:45:02;;;;;;;5.75;1.65;;;11.90;99.90;;;;;;5092052;28;20093;-65
2022/09/25 01:47:32;;;;;;;4.97;1.27;;;11.70;99.90;;;;;;5092027;28;20118;-64
2022/09/25 01:50:01;;;;;;;9.55;1.73;;;12.90;99.90;;;;;;5091875;28;20074;-64
2022/09/25 01:52:34;;;;;;;7.90;1.40;;;11.70;99.90;;;;;;5091861;28;20040;-65
2022/09/25 01:55:11;;;;;;;9.65;1.83;;;12.10;99.90;;;;;;5091619;28;20126;-64
2022/09/25 01:57:40;;;;;;;6.45;1.52;;;12.10;99.90;;;;;;5091924;28;20052;-67
2022/09/25 02:00:09;;;;;;;4.95;1.45;;;12.10;99.90;;;;;;5091756;28;20052;-68
2022/09/25 02:02:42;;;;;;;10.18;2.05;;;11.90;99.90;;;;;;5091687;28;20146;-64
2022/09/25 02:05:20;;;;;;;9.85;1.52;;;12.20;99.90;;;;;;5091790;28;20048;-64
2022/09/25 02:07:53;;;;;;;11.73;1.58;;;12.00;99.90;;;;;;5092064;28;20438;-64
2022/09/25 02:10:33;;;;;;;10.70;1.70;;;12.10;99.90;;;;;;5091459;28;20521;-64
2022/09/25 02:13:08;;;;;;;10.05;1.55;;;11.50;99.90;;;;;;5091722;28;20062;-64
2022/09/25 02:15:41;;;;;;;6.10;1.30;;;12.30;99.90;;;;;;5091703;28;20119;-64
2022/09/25 02:21:01;;;;;;;4.32;1.20;;;11.50;99.90;;;;;;5091653;28;20121;-64
2022/09/25 02:24:01;;;;;;;8.57;1.80;;;12.10;99.90;;;;;;5091693;28;20040;-64
2022/09/25 02:26:29;;;;;;;5.97;1.38;;;11.60;99.90;;;;;;5090001;28;20476;-64
2022/09/25 02:28:56;;;;;;;11.23;1.50;;;12.20;99.90;;;;;;5091572;28;20048;-64
2022/09/25 02:31:34;;;;;;;7.50;1.40;;;11.30;99.90;;;;;;5092690;28;20048;-65
2022/09/25 02:34:00;;;;;;;8.85;1.88;;;11.90;99.90;;;;;;5095150;28;20059;-64
2022/09/25 02:36:26;;;;;;;;;;;12.70;99.90;;;;;;5095528;28;20472;-65
2022/09/25 02:38:54;;;;;;;9.07;1.50;;;11.60;99.90;;;;;;5094784;28;19920;-64
2022/09/25 02:41:38;;;;;;;9.88;1.50;;;11.60;99.90;;;;;;5093652;28;20055;-64
2022/09/25 02:44:31;;;;;;;10.77;1.88;;;11.70;99.90;;;;;;5094953;28;20036;-64
2022/09/25 02:47:38;;;;;;;8.05;1.88;;;11.20;99.90;;;;;;5094936;28;20039;-64
2022/09/25 02:50:28;;;;;;;4.93;1.20;;;11.40;99.90;;;;;;5094895;28;20048;-64
2022/09/25 02:53:25;;;;;;;7.28;1.55;;;11.30;99.90;;;;;;5094763;28;20044;-64
2022/09/25 02:56:12;;;;;;;10.18;1.38;;;11.30;99.90;;;;;;5094459;28;20526;-67
2022/09/25 02:58:49;;;;;;;9.80;1.50;;;11.40;99.90;;;;;;5094732;28;20078;-64
2022/09/25 03:01:18;;;;;;;5.63;1.25;;;11.10;99.90;;;;;;5094422;28;20420;-66
2022/09/25 03:03:46;;;;;;;7.88;1.50;;;11.40;99.90;;;;;;5094630;28;20120;-63
2022/09/25 03:06:12;;;;;;;14.05;1.88;;;11.20;99.90;;;;;;5094491;28;20066;-65
2022/09/25 03:08:43;;;;;;;7.90;1.35;;;11.10;99.90;;;;;;5094268;28;20488;-64
2022/09/25 03:11:20;;;;;;;6.97;1.27;;;11.30;99.90;;;;;;5094490;28;20040;-65
2022/09/25 03:13:57;;;;;;;4.05;1.13;;;12.20;99.90;;;;;;5094371;28;20048;-68
2022/09/25 03:16:53;;;;;;;6.15;1.20;;;11.10;99.90;;;;;;5094488;28;20119;-65
2022/09/25 03:19:19;;;;;;;8.40;1.52;;;10.90;99.90;;;;;;5094418;28;20044;-65
2022/09/25 03:21:46;;;;;;;3.83;1.45;;;11.80;99.90;;;;;;5094604;28;20040;-64
2022/09/25 03:24:12;;;;;;;5.55;1.30;;;11.20;99.90;;;;;;5094077;28;20100;-65
2022/09/25 03:26:39;;;;;;;10.23;1.45;;;11.40;99.90;;;;;;5094216;28;20217;-65
2022/09/25 03:29:05;;;;;;;4.65;1.10;;;12.20;99.90;;;;;;5094206;28;20048;-64
2022/09/25 03:31:31;;;;;;;7.82;1.20;;;11.30;99.90;;;;;;5093575;28;20503;-65
2022/09/25 03:33:57;;;;;;;6.32;1.33;;;11.40;99.90;;;;;;5093951;28;20052;-64
2022/09/25 03:36:25;;;;;;;8.48;1.40;;;10.90;99.90;;;;;;5094062;28;20055;-65
2022/09/25 03:38:56;;;;;;;7.78;1.58;;;11.10;99.90;;;;;;5093591;28;20044;-64
2022/09/25 03:41:22;;;;;;;7.70;1.23;;;11.00;99.90;;;;;;5093930;28;20069;-66
2022/09/25 03:43:50;;;;;;;3.17;1.30;;;11.20;99.90;;;;;;5092464;28;20044;-64
2022/09/25 03:46:21;;;;;;;7.65;1.35;;;10.90;99.90;;;;;;5093778;28;20083;-64
2022/09/25 03:48:47;;;;;;;7.72;1.48;;;10.90;99.90;;;;;;5093504;28;20515;-65
2022/09/25 03:51:13;;;;;;;6.78;1.50;;;10.70;99.90;;;;;;5092154;28;20377;-67
2022/09/25 03:53:39;;;;;;;9.10;1.55;;;10.70;99.90;;;;;;5093527;28;20101;-65
2022/09/25 03:56:09;;;;;;;7.45;1.38;;;10.70;99.90;;;;;;5093615;28;20065;-65
2022/09/25 03:58:35;;;;;;;7.07;1.52;;;10.50;99.90;;;;;;5093530;28;20065;-64
2022/09/25 04:01:01;;;;;;;17.02;2.78;;;10.80;99.90;;;;;;5093513;28;20514;-64
2022/09/25 04:03:28;;;;;;;7.43;1.50;;;10.90;99.90;;;;;;5093416;28;20036;-65
2022/09/25 04:05:59;;;;;;;10.30;2.17;;;10.70;99.90;;;;;;5093064;28;20048;-64
2022/09/25 04:08:26;;;;;;;7.13;1.30;;;10.50;99.90;;;;;;5093291;28;20046;-64
2022/09/25 04:10:55;;;;;;;5.00;1.50;;;10.50;99.90;;;;;;5092848;28;20460;-65
2022/09/25 04:13:25;;;;;;;6.50;1.25;;;11.40;99.90;;;;;;5093122;28;20040;-64
2022/09/25 04:15:50;;;;;;;5.22;1.52;;;10.60;99.90;;;;;;5093437;28;20052;-65
2022/09/25 04:18:16;;;;;;;8.05;1.50;;;10.90;99.90;;;;;;5093203;28;20087;-64
2022/09/25 04:20:42;;;;;;;;;;;10.80;99.90;;;;;;5093229;28;20048;-64
2022/09/25 04:23:08;;;;;;;13.40;1.77;;;11.00;99.90;;;;;;5093069;28;19924;-64
2022/09/25 04:25:33;;;;;;;5.68;1.20;;;10.90;99.90;;;;;;5093077;28;20516;-64
2022/09/25 04:27:59;;;;;;;4.15;1.13;;;10.80;99.90;;;;;;5092827;28;20101;-64
2022/09/25 04:30:27;;;;;;;7.97;1.90;;;10.80;99.90;;;;;;5092578;28;20193;-65
2022/09/25 04:35:38;;;;;;;8.25;1.50;;;10.70;99.90;;;;;;5092573;28;20059;-65
2022/09/25 04:38:04;;;;;;;15.95;1.65;;;10.60;99.90;;;;;;5092790;28;20035;-65
2022/09/25 04:40:30;;;;;;;4.97;1.20;;;10.90;99.90;;;;;;5092716;28;20055;-64
2022/09/25 04:43:00;;;;;;;8.48;1.45;;;11.00;99.90;;;;;;5092779;28;20147;-65
2022/09/25 04:45:27;;;;;;;5.25;1.33;;;11.10;99.90;;;;;;5091460;28;20058;-67
2022/09/25 04:47:53;;;;;;;9.93;1.42;;;11.10;99.90;;;;;;5092393;28;20488;-64
2022/09/25 04:50:21;;;;;;;8.30;1.30;;;10.80;99.90;;;;;;5092429;28;20055;-64
2022/09/25 04:52:46;;;;;;;6.55;1.65;;;10.60;99.90;;;;;;5092476;28;20130;-67
2022/09/25 04:55:12;;;;;;;5.07;1.33;;;11.00;99.90;;;;;;5092250;28;20123;-66
2022/09/25 04:57:38;;;;;;;10.23;1.52;;;10.60;99.90;;;;;;5092516;28;20079;-65
2022/09/25 05:00:05;;;;;;;7.57;1.67;;;10.80;99.90;;;;;;5092481;28;20048;-64
2022/09/25 05:02:31;;;;;;;6.80;1.20;;;10.30;99.90;;;;;;5092344;28;20079;-64
2022/09/25 05:04:57;;;;;;;7.22;1.50;;;10.70;99.90;;;;;;5092290;28;20079;-64
2022/09/25 05:07:22;;;;;;;5.25;1.50;;;10.60;99.90;;;;;;5092406;28;20059;-67
2022/09/25 05:09:48;;;;;;;12.07;1.40;;;10.20;99.90;;;;;;5092445;28;20056;-64
2022/09/25 05:12:14;;;;;;;7.00;1.30;;;10.90;99.90;;;;;;5092425;28;20071;-64
2022/09/25 05:14:41;;;;;;;;;;;10.50;99.90;;;;;;5092990;28;20047;-64
2022/09/25 05:17:09;;;;;;;12.98;1.70;;;10.30;99.90;;;;;;5092386;28;19973;-64
2022/09/25 05:19:35;;;;;;;8.70;1.70;;;10.30;99.90;;;;;;5092003;28;20095;-64
2022/09/25 05:22:01;;;;;;;7.80;1.33;;;11.10;99.90;;;;;;5092235;28;20127;-64
2022/09/25 05:24:27;;;;;;;5.68;1.17;;;10.80;99.90;;;;;;5092265;28;20119;-64
2022/09/25 05:26:52;;;;;;;6.03;1.50;;;10.30;99.90;;;;;;5092233;28;20488;-64
2022/09/25 05:29:18;;;;;;;9.55;1.40;;;10.80;99.90;;;;;;5090905;28;20091;-65
2022/09/25 05:31:47;;;;;;;10.25;2.70;;;10.10;99.90;;;;;;5092198;28;20064;-67
2022/09/25 05:34:13;;;;;;;6.70;1.38;;;10.30;99.90;;;;;;5091706;28;20097;-66
2022/09/25 05:36:39;;;;;;;5.95;1.20;;;10.20;99.90;;;;;;5092038;28;20052;-67
2022/09/25 05:39:04;;;;;;;8.85;1.48;;;10.80;99.90;;;;;;5092034;28;20069;-65
2022/09/25 05:41:33;;;;;;;11.18;1.50;;;10.60;99.90;;;;;;5092025;28;20437;-65
2022/09/25 05:44:01;;;;;;;9.82;1.40;;;10.00;99.90;;;;;;5091941;28;20051;-66
2022/09/25 05:46:27;;;;;;;8.30;1.23;;;9.90;99.90;;;;;;5091967;28;20400;-64
2022/09/25 05:48:53;;;;;;;6.63;2.13;;;10.10;99.90;;;;;;5091649;28;20048;-64
2022/09/25 05:51:19;;;;;;;11.93;2.15;;;10.10;99.90;;;;;;5091926;28;20052;-64
2022/09/25 05:53:46;;;;;;;9.15;1.40;;;11.10;99.90;;;;;;5091814;28;20044;-64
2022/09/25 05:56:12;;;;;;;7.88;1.35;;;10.30;99.90;;;;;;5091861;28;20052;-64
2022/09/25 05:58:38;;;;;;;11.20;2.47;;;10.50;99.90;;;;;;5091855;28;20056;-67
2022/09/25 06:01:05;;;;;;;4.15;1.20;;;9.80;99.90;;;;;;5091913;28;20392;-65
2022/09/25 06:03:31;;;;;;;5.93;1.08;;;9.70;99.90;;;;;;5091763;28;20059;-68
2022/09/25 06:05:57;;;;;;;5.18;1.05;;;10.20;99.90;;;;;;5092879;28;20044;-65
2022/09/25 06:08:24;;;;;;;6.40;1.52;;;10.20;99.90;;;;;;5095379;28;20570;-66
2022/09/25 06:10:52;;;;;;;8.48;1.40;;;10.20;99.90;;;;;;5095612;28;20048;-65
2022/09/25 06:13:18;;;;;;;11.13;1.65;;;9.60;99.90;;;;;;5095585;28;20441;-68
2022/09/25 06:15:44;;;;;;;4.07;1.33;;;10.20;99.90;;;;;;5095552;28;20090;-64
2022/09/25 06:18:09;;;;;;;11.15;1.40;;;10.50;99.90;;;;;;5095289;28;20115;-65
2022/09/25 06:20:35;;;;;;;7.57;1.88;;;10.10;99.90;;;;;;5095393;28;20083;-65
2022/09/25 06:23:01;;;;;;;11.70;1.65;;;9.90;99.90;;;;;;5095406;28;20075;-65
2022/09/25 06:25:31;;;;;;;9.40;1.55;;;9.90;99.90;;;;;;5095380;28;20048;-65
2022/09/25 06:27:59;;;;;;;4.05;1.35;;;10.70;99.90;;;;;;5095251;28;20091;-67
2022/09/25 06:30:32;;;;;;;8.57;1.50;;;10.00;99.90;;;;;;5095150;28;20055;-64
2022/09/25 06:33:00;;;;;;;7.80;1.40;;;10.40;99.90;;;;;;5095079;28;20344;-67
2022/09/25 06:35:27;;;;;;;6.25;1.23;;;11.60;99.90;;;;;;5095228;28;20043;-64
2022/09/25 06:37:57;;;;;;;8.13;1.40;;;10.50;99.90;;;;;;5086763;28;20123;-65
2022/09/25 06:40:26;;;;;;;6.75;1.30;;;10.30;99.90;;;;;;5091105;28;20109;-65
2022/09/25 06:42:59;;;;;;;5.55;1.17;;;10.50;99.90;;;;;;5093933;28;20048;-65
2022/09/25 06:45:26;;;;;;;5.55;1.20;;;10.80;99.90;;;;;;5093702;28;20816;-65
2022/09/25 06:48:21;;;;;;;6.47;1.10;;;10.80;99.90;;;;;;5093256;28;20181;-64
2022/09/25 06:50:48;;;;;;;6.60;1.38;;;11.00;99.90;;;;;;5084786;28;20048;-64
2022/09/25 06:53:15;;;;;;;4.25;1.40;;;11.00;99.90;;;;;;5093040;28;20089;-67
2022/09/25 06:55:44;;;;;;;12.68;1.60;;;11.10;99.90;;;;;;5094208;28;20079;-65
2022/09/25 06:58:18;;;;;;;5.82;1.42;;;11.20;99.90;;;;;;5094479;28;20523;-64
2022/09/25 07:00:49;;;;;;;5.40;1.33;;;11.40;99.90;;;;;;5094549;28;20381;-66
2022/09/25 07:06:00;;;;;;;11.13;1.40;;;11.50;99.90;;;;;;5094878;28;20109;-68
2022/09/25 07:08:26;;;;;;;9.43;1.42;;;11.90;99.90;;;;;;5094356;28;20480;-64
2022/09/25 07:10:53;;;;;;;;;;;11.90;99.90;;;;;;5094847;28;20499;-64
2022/09/25 07:13:23;;;;;;;5.50;1.42;;;11.40;99.90;;;;;;5094370;28;19923;-65
2022/09/25 07:15:53;;;;;;;5.45;1.55;;;11.90;99.90;;;;;;5094110;28;20051;-67
2022/09/25 07:18:21;;;;;;;7.80;1.30;;;11.60;99.90;;;;;;5094167;28;20051;-65
2022/09/25 07:20:47;;;;;;;7.78;1.40;;;11.70;99.90;;;;;;5086518;28;20059;-65
2022/09/25 07:23:14;;;;;;;5.97;1.85;;;11.60;99.90;;;;;;5092885;28;20044;-65
2022/09/25 07:25:40;;;;;;;6.20;1.02;;;12.10;99.90;;;;;;5093270;28;20844;-65
2022/09/25 07:28:06;;;;;;;5.57;1.20;;;12.00;99.90;;;;;;5091805;28;20539;-65
2022/09/25 07:30:33;;;;;;;6.80;1.63;;;11.80;99.90;;;;;;5093036;28;20059;-64
2022/09/25 07:32:58;;;;;;;6.47;1.40;;;12.20;99.90;;;;;;5093026;28;20390;-65
2022/09/25 07:35:26;;;;;;;5.95;1.40;;;12.30;99.90;;;;;;5092896;28;20130;-66
2022/09/25 07:37:54;;;;;;;11.60;1.40;;;12.10;99.90;;;;;;5092108;28;20044;-65
2022/09/25 07:40:20;;;;;;;5.50;1.30;;;13.30;99.90;;;;;;5093198;28;20122;-66
2022/09/25 07:42:45;;;;;;;7.78;1.30;;;12.10;99.90;;;;;;5092625;28;20148;-65
2022/09/25 07:45:11;;;;;;;7.47;1.10;;;13.00;99.90;;;;;;5092791;28;20102;-67
2022/09/25 07:47:37;;;;;;;6.03;1.33;;;12.90;99.90;;;;;;5093157;28;20052;-65
2022/09/25 07:50:02;;;;;;;5.82;1.25;;;12.70;99.90;;;;;;5092549;28;20435;-65
2022/09/25 07:52:28;;;;;;;3.20;1.00;;;11.90;99.90;;;;;;5093095;28;20059;-65
2022/09/25 07:54:54;;;;;;;3.53;0.90;;;12.20;99.90;;;;;;5092588;28;20487;-64
2022/09/25 07:57:19;;;;;;;4.25;0.95;;;12.30;99.90;;;;;;5092350;28;20054;-66
2022/09/25 07:59:46;;;;;;;6.95;1.40;;;12.60;99.90;;;;;;5093015;28;20040;-65
2022/09/25 08:02:12;;;;;;;6.47;1.00;;;13.20;99.90;;;;;;5092889;28;20058;-64
2022/09/25 08:04:37;;;;;;;8.27;1.70;;;13.20;99.90;;;;;;5092305;28;20044;-64
2022/09/25 08:07:03;;;;;;;3.33;1.55;;;13.70;99.90;;;;;;5092799;28;20467;-64
2022/09/25 08:09:29;;;;;;;9.57;1.55;;;13.80;99.90;;;;;;5092782;28;20693;-65
2022/09/25 08:11:55;;;;;;;5.28;1.20;;;14.20;99.90;;;;;;5092274;28;20393;-67
2022/09/25 08:14:21;;;;;;;6.75;1.50;;;14.00;99.90;;;;;;5092037;28;20082;-63
2022/09/25 08:16:48;;;;;;;4.18;1.08;;;14.30;99.90;;;;;;5092360;28;20055;-65
2022/09/25 08:19:17;;;;;;;5.57;1.40;;;13.70;99.90;;;;;;5092165;28;20492;-65
2022/09/25 08:21:43;;;;;;;5.93;1.27;;;13.90;99.90;;;;;;5092683;28;20084;-64
2022/09/25 08:24:09;;;;;;;;;;;13.90;99.90;;;;;;5093038;28;20077;-66
2022/09/25 08:26:35;;;;;;;3.55;1.10;;;13.70;99.90;;;;;;5092091;28;19930;-75
2022/09/25 08:29:03;;;;;;;6.25;1.17;;;14.80;99.90;;;;;;5091935;28;20115;-64
2022/09/25 08:31:29;;;;;;;3.38;1.02;;;14.00;99.90;;;;;;5092501;28;20060;-65
2022/09/25 08:33:55;;;;;;;13.15;2.45;;;14.30;99.90;;;;;;5091695;28;20052;-66
2022/09/25 08:36:21;;;;;;;4.18;1.77;;;14.60;99.90;;;;;;5091504;28;20048;-65
2022/09/25 08:38:47;;;;;;;;;;;14.00;99.90;;;;;;5092355;28;20048;-64
2022/09/25 08:41:22;;;;;;;4.15;1.30;;;14.50;99.90;;;;;;5091428;28;19926;-64
2022/09/25 08:44:09;;;;;;;3.80;1.02;;;14.00;99.90;;;;;;5092406;28;20062;-63
2022/09/25 08:49:38;;;;;;;11.57;1.80;;;14.50;99.90;;;;;;5091724;28;20110;-64
2022/09/25 08:52:07;;;;;;;3.08;1.40;;;14.70;99.90;;;;;;5092376;28;20400;-64
2022/09/25 08:54:34;;;;;;;5.03;0.95;;;14.60;99.90;;;;;;5091984;28;20039;-64
2022/09/25 08:57:26;;;;;;;3.42;0.77;;;15.00;99.90;;;;;;5090997;28;20043;-66
2022/09/25 08:59:58;;;;;;;4.57;1.00;;;14.80;99.90;;;;;;5091996;28;20054;-64
2022/09/25 09:02:52;;;;;;;6.90;1.33;;;15.10;99.90;;;;;;5091913;28;20048;-63
2022/09/25 09:05:34;;;;;;;7.72;1.25;;;15.10;99.90;;;;;;5090095;28;20106;-63
2022/09/25 09:08:06;;;;;;;8.27;1.35;;;15.40;99.90;;;;;;5091857;28;20488;-64
2022/09/25 09:10:39;;;;;;;4.30;1.10;;;15.30;99.90;;;;;;5090853;28;20563;-65
2022/09/25 09:13:26;;;;;;;4.82;0.93;;;15.10;99.90;;;;;;5091649;28;20048;-64
2022/09/25 09:15:53;;;;;;;4.95;0.98;;;15.30;99.90;;;;;;5091239;28;20048;-66
2022/09/25 09:18:25;;;;;;;1.85;0.82;;;15.30;99.90;;;;;;5091185;28;20040;-64
2022/09/25 09:20:56;;;;;;;3.80;1.20;;;14.90;99.90;;;;;;5091728;28;20089;-64
2022/09/25 09:23:51;;;;;;;5.25;0.90;;;14.70;99.90;;;;;;5091639;28;20083;-66
2022/09/25 09:26:38;;;;;;;6.07;1.00;;;15.00;99.90;;;;;;5086384;28;20087;-63
2022/09/25 09:29:23;;;;;;;6.72;1.25;;;15.00;99.90;;;;;;5091178;28;20040;-65
2022/09/25 09:32:11;;;;;;;2.75;0.80;;;14.80;99.90;;;;;;5091727;28;20066;-64
2022/09/25 09:35:03;;;;;;;3.30;0.80;;;14.70;99.90;;;;;;5090765;28;20396;-64
2022/09/25 09:38:03;;;;;;;4.53;1.00;;;14.90;99.90;;;;;;5090704;28;20456;-65
2022/09/25 09:41:01;;;;;;;6.20;1.10;;;14.60;99.90;;;;;;5091256;28;20058;-64
2022/09/25 09:43:56;;;;;;;3.45;1.58;;;14.50;99.90;;;;;;5086637;28;20048;-64
2022/09/25 09:46:55;;;;;;;2.70;0.80;;;15.00;99.90;;;;;;5095476;28;20179;-65
2022/09/25 09:49:28;;;;;;;3.72;0.85;;;15.00;99.90;;;;;;5095024;28;20051;-66
2022/09/25 09:52:08;;;;;;;1.63;0.70;;;14.70;99.90;;;;;;5094654;28;20094;-65
2022/09/25 09:54:54;;;;;;;1.75;0.82;;;15.00;99.90;;;;;;5094531;28;20101;-65
2022/09/25 09:57:26;;;;;;;3.55;0.80;;;14.80;99.90;;;;;;5095226;28;20048;-64
2022/09/25 10:00:01;;;;;;;4.57;1.75;;;15.10;99.90;;;;;;5095295;28;20054;-64
2022/09/25 10:02:35;;;;;;;2.10;0.80;;;14.80;99.90;;;;;;5094721;28;20442;-65
2022/09/25 10:05:06;;;;;;;1.77;0.68;;;14.90;99.90;;;;;;5095297;28;20048;-65
2022/09/25 10:07:36;;;;;;;3.35;0.90;;;15.00;99.90;;;;;;5095130;28;20101;-64
2022/09/25 10:10:13;;;;;;;5.38;1.00;;;15.00;99.90;;;;;;5094230;28;20048;-68
2022/09/25 10:12:41;;;;;;;;;;;14.90;99.90;;;;;;5094131;28;20055;-66
2022/09/25 10:15:25;;;;;;;4.88;1.38;;;14.90;99.90;;;;;;5094612;28;20352;-65
2022/09/25 10:17:53;;;;;;;6.57;1.10;;;15.10;99.90;;;;;;5086769;28;20125;-68
2022/09/25 10:20:22;;;;;;;3.85;0.90;;;15.00;99.90;;;;;;5093855;28;20036;-65
2022/09/25 10:22:52;;;;;;;3.10;1.00;;;14.90;99.90;;;;;;5093782;28;20104;-65
2022/09/25 10:25:38;;;;;;;4.57;1.10;;;15.00;99.90;;;;;;5095372;28;20048;-65
2022/09/25 10:28:21;;;;;;;4.55;1.23;;;15.10;99.90;;;;;;5095236;28;20040;-66
2022/09/25 10:30:47;;;;;;;5.00;0.90;;;15.10;99.90;;;;;;5087649;28;20063;-68
2022/09/25 10:33:21;;;;;;;5.93;1.20;;;15.00;99.90;;;;;;5093748;28;20055;-67
2022/09/25 10:35:48;;;;;;;2.97;0.80;;;14.70;99.90;;;;;;5093195;28;20051;-68
2022/09/25 10:38:31;;;;;;;5.35;1.13;;;14.80;99.90;;;;;;5094182;28;20504;-65
2022/09/25 10:41:11;;;;;;;5.97;1.08;;;15.20;99.90;;;;;;5094976;28;20130;-65
2022/09/25 10:43:58;;;;;;;3.45;0.90;;;15.10;99.90;;;;;;5095162;28;20040;-63
2022/09/25 10:52:05;;;;;;;3.65;0.75;;;15.40;99.90;;;;;;5093924;28;20094;-67
2022/09/25 10:54:31;;;;;;;4.18;0.80;;;15.70;99.90;;;;;;5094460;28;20069;-64
2022/09/25 10:56:57;;;;;;;2.75;0.70;;;15.90;99.90;;;;;;5094859;28;20521;-66
2022/09/25 10:59:23;;;;;;;;;;;16.00;99.90;;;;;;5094873;28;20400;-65
2022/09/25 11:01:52;;;;;;;8.32;1.27;;;16.00;99.90;;;;;;5094693;28;19927;-65
2022/09/25 11:04:30;;;;;;;3.30;1.00;;;16.30;99.90;;;;;;5093356;28;20078;-66
2022/09/25 11:07:00;;;;;;;5.13;0.90;;;16.20;99.90;;;;;;5094126;28;20039;-64
2022/09/25 11:09:28;;;;;;;3.85;1.08;;;16.10;99.90;;;;;;5094366;28;20113;-64
2022/09/25 11:12:24;;;;;;;4.22;0.70;;;16.10;99.90;;;;;;5094466;28;20121;-63
2022/09/25 11:14:57;;;;;;;6.32;0.90;;;16.50;99.90;;;;;;5093184;28;20048;-64
2022/09/25 11:17:41;;;;;;;4.70;0.93;;;16.10;99.90;;;;;;5094183;28;20044;-64
2022/09/25 11:20:16;;;;;;;4.38;1.08;;;16.20;99.90;;;;;;5094414;28;20052;-64
2022/09/25 11:22:53;;;;;;;5.97;1.02;;;16.20;99.90;;;;;;5093868;28;20048;-63
2022/09/25 11:25:30;;;;;;;1.90;0.80;;;15.40;99.90;;;;;;5094100;28;20052;-66
2022/09/25 11:28:14;;;;;;;;;;;15.60;99.90;;;;;;5094446;28;20201;-64
2022/09/25 11:31:00;;;;;;;3.53;1.00;;;15.70;99.90;;;;;;5094047;28;19920;-65
2022/09/25 11:33:26;;;;;;;4.18;0.95;;;13.20;99.90;;;;;;5093888;28;20044;-64
2022/09/25 11:35:57;;;;;;;;;;;15.20;99.90;;;;;;5093964;28;20051;-65
2022/09/25 11:41:55;;;;;;;7.93;1.02;;;15.00;99.90;;;;;;5093928;28;20106;-64
2022/09/25 11:44:23;;;;;;;4.80;0.73;;;14.80;99.90;;;;;;5091033;28;20055;-64
2022/09/25 11:47:07;;;;;;;2.80;0.80;;;15.00;99.90;;;;;;5093828;28;20052;-64
2022/09/25 11:49:37;;;;;;;1.83;0.70;;;15.10;99.90;;;;;;5093467;28;20052;-65
2022/09/25 11:52:27;;;;;;;3.10;0.82;;;15.20;99.90;;;;;;5093574;28;20484;-64
2022/09/25 11:55:06;;;;;;;4.20;0.80;;;15.40;99.90;;;;;;5092242;28;20213;-64
2022/09/25 11:58:00;;;;;;;2.95;0.90;;;15.60;99.90;;;;;;5093431;28;20055;-65
2022/09/25 12:00:59;;;;;;;4.93;1.08;;;15.90;99.90;;;;;;5093444;28;20044;-64
2022/09/25 12:03:47;;;;;;;3.88;1.00;;;15.90;99.90;;;;;;5092398;28;20043;-64
2022/09/25 12:06:25;;;;;;;3.78;1.08;;;16.30;99.90;;;;;;5092971;28;20121;-69
2022/09/25 12:09:09;;;;;;;3.95;1.00;;;16.40;99.90;;;;;;5093288;28;20043;-64
2022/09/25 12:12:00;;;;;;;5.57;1.30;;;16.80;99.90;;;;;;5093054;28;20507;-64
2022/09/25 12:15:04;;;;;;;5.35;1.05;;;16.50;99.90;;;;;;5093139;28;20131;-64
2022/09/25 12:17:57;;;;;;;5.25;1.45;;;16.50;99.90;;;;;;5072677;28;20138;-65
2022/09/25 12:20:49;;;;;;;3.13;1.02;;;16.80;99.90;;;;;;5085348;28;20147;-67
2022/09/25 12:23:19;;;;;;;3.92;0.90;;;16.50;99.90;;;;;;5090756;28;20044;-65
2022/09/25 12:25:48;;;;;;;3.72;1.30;;;16.70;99.90;;;;;;5092016;28;20101;-65
2022/09/25 12:28:32;;;;;;;3.47;0.85;;;16.50;99.90;;;;;;5092978;28;20043;-64
2022/09/25 12:31:35;;;;;;;3.33;0.80;;;16.40;99.90;;;;;;5091600;28;20070;-68
2022/09/25 12:34:25;;;;;;;4.88;1.02;;;16.20;99.90;;;;;;5092929;28;20083;-65
2022/09/25 12:37:21;;;;;;;5.25;0.80;;;16.20;99.90;;;;;;5092826;28;20051;-64
2022/09/25 12:39:55;;;;;;;3.88;0.90;;;16.20;99.90;;;;;;5092730;28;20059;-65
2022/09/25 12:42:42;;;;;;;2.97;0.90;;;16.20;99.90;;;;;;5092777;28;20131;-66
2022/09/25 12:45:20;;;;;;;3.10;0.95;;;16.30;99.90;;;;;;5092681;28;20106;-65
2022/09/25 12:48:10;;;;;;;3.30;0.85;;;16.00;99.90;;;;;;5092263;28;20362;-65
2022/09/25 12:50:43;;;;;;;3.45;1.05;;;16.20;99.90;;;;;;5092172;28;20396;-65
2022/09/25 12:53:23;;;;;;;2.15;0.57;;;16.80;99.90;;;;;;5092642;28;20054;-69
2022/09/25 12:56:24;;;;;;;12.13;4.80;;;17.20;99.90;;;;;;5091217;28;20135;-65
2022/09/25 12:59:18;;;;;;;6.22;1.30;;;17.40;99.90;;;;;;5092535;28;20160;-65
2022/09/25 13:02:05;;;;;;;5.93;1.15;;;17.60;99.90;;;;;;5076428;28;20060;-65
2022/09/25 13:04:53;;;;;;;4.82;0.80;;;17.80;99.90;;;;;;5092337;28;20036;-65
2022/09/25 13:07:42;;;;;;;4.75;1.10;;;17.30;99.90;;;;;;5092509;28;20101;-65
2022/09/25 13:10:19;;;;;;;3.20;0.85;;;17.00;99.90;;;;;;5092379;28;20116;-65
2022/09/25 13:12:47;;;;;;;3.53;0.65;;;17.10;99.90;;;;;;5092160;28;20121;-65
2022/09/25 13:15:22;;;;;;;5.78;0.70;;;17.50;99.90;;;;;;5090747;28;20076;-64
2022/09/25 13:17:49;;;;;;;4.93;1.00;;;17.40;99.90;;;;;;5091843;28;20052;-65
2022/09/25 13:20:39;;;;;;;2.10;0.57;;;17.80;99.90;;;;;;5092295;28;20040;-65
2022/09/25 13:23:24;;;;;;;6.00;1.42;;;17.80;99.90;;;;;;5086435;28;20056;-65
2022/09/25 13:25:59;;;;;;;7.65;2.63;;;17.90;99.90;;;;;;5092241;28;20502;-65
2022/09/25 13:28:31;;;;;;;5.25;1.65;;;18.20;99.90;;;;;;5092269;28;20043;-65
2022/09/25 13:31:00;;;;;;;4.88;1.10;;;18.10;99.90;;;;;;5092145;28;20425;-65
2022/09/25 13:33:26;;;;;;;4.95;0.93;;;17.50;99.90;;;;;;5087845;28;20056;-65
2022/09/25 13:36:15;;;;;;;3.47;0.88;;;17.90;99.90;;;;;;5090541;28;20044;-65
2022/09/25 13:41:29;;;;;;;3.60;0.90;;;17.50;99.90;;;;;;5092102;28;20064;-67